Time;durP1;ratioP1;P1;durP2;ratioP2;P2;SDS_P1;SDS_P2;PMS_P1;PMS_P2;Temp;Humidity;BMP_temperature;BMP_pressure;BME280_temperature;BME280_humidity;BME280_pressure;Samples;Min_cycle;Max_cycle;Signal;HPM_P1;HPM_P2
2022/01/25 00:08:41;;;;;;;73.20;39.50;;;;;;;0.88;81.04;101869.42;84426;1338;22854;-76
2022/01/25 00:26:17;;;;;;;75.60;39.40;;;;;;;0.85;81.09;101858.54;84629;1330;23057;-83
2022/01/25 00:28:43;;;;;;;75.30;40.60;;;;;;;0.87;81.30;101859.95;84652;1333;22610;-81
2022/01/25 00:31:02;;;;;;;79.80;40.50;;;;;;;0.89;81.34;101853.48;84650;1333;23878;-83
2022/01/25 00:33:14;;;;;;;71.20;38.50;;;;;;;0.90;81.29;101851.45;84697;1330;26687;-82
2022/01/25 00:35:26;;;;;;;76.80;39.70;;;;;;;0.91;81.43;101846.48;84700;1330;22716;-82
2022/01/25 00:37:39;;;;;;;79.70;41.90;;;;;;;0.93;81.51;101841.55;84679;1330;23002;-81
2022/01/25 00:39:52;;;;;;;81.10;39.40;;;;;;;0.95;81.57;101840.92;84684;1330;22608;-75
2022/01/25 00:42:02;;;;;;;74.60;38.90;;;;;;;0.94;81.59;101834.19;84604;1330;22628;-75
2022/01/25 00:44:13;;;;;;;78.10;39.80;;;;;;;0.95;81.63;101831.98;84577;1331;22610;-76
2022/01/25 00:46:22;;;;;;;73.80;37.40;;;;;;;0.95;81.59;101828.05;84725;1332;23849;-83
2022/01/25 00:48:42;;;;;;;74.10;39.20;;;;;;;0.97;81.82;101828.42;84676;1328;22600;-84
2022/01/25 00:50:51;;;;;;;;;;;;;;;0.99;81.82;101826.77;84596;1330;22616;-83
2022/01/25 00:55:27;;;;;;;81.50;39.70;;;;;;;1.04;81.91;101826.20;84665;1328;22877;-76
2022/01/25 00:57:38;;;;;;;76.20;40.10;;;;;;;1.05;82.06;101829.65;84591;1330;23578;-77
2022/01/25 00:59:48;;;;;;;73.50;39.30;;;;;;;1.05;81.64;101823.80;84813;1330;25274;-83
2022/01/25 01:02:02;;;;;;;80.80;41.90;;;;;;;1.04;81.96;101824.48;84578;1332;22629;-83
2022/01/25 01:04:13;;;;;;;78.30;38.80;;;;;;;1.06;81.86;101824.67;84638;1334;22604;-75
2022/01/25 01:06:24;;;;;;;80.10;39.80;;;;;;;1.06;81.72;101822.44;84691;1330;22618;-76
2022/01/25 01:08:33;;;;;;;67.90;34.80;;;;;;;1.08;81.96;101823.34;84716;1324;22629;-77
2022/01/25 01:10:47;;;;;;;74.80;36.80;;;;;;;1.10;82.13;101820.14;84611;1329;22678;-76
2022/01/25 01:15:35;;;;;;;73.10;38.00;;;;;;;1.12;82.05;101817.27;84313;1334;22609;-76
2022/01/25 01:30:13;;;;;;;72.40;36.10;;;;;;;1.04;82.44;101802.48;84622;1330;22616;-83
2022/01/25 01:32:56;;;;;;;79.40;37.70;;;;;;;1.04;82.19;101803.33;84584;1331;25357;-82
2022/01/25 01:35:35;;;;;;;81.10;39.20;;;;;;;1.06;82.32;101803.88;84634;1333;22835;-76
2022/01/25 01:38:09;;;;;;;80.30;38.50;;;;;;;1.08;82.40;101806.17;84673;1331;22727;-76
2022/01/25 01:45:31;;;;;;;81.70;39.80;;;;;;;0.99;82.30;101787.05;84634;1330;24300;-75
2022/01/25 01:47:48;;;;;;;80.00;38.00;;;;;;;0.97;82.40;101779.78;84697;1329;25277;-76
2022/01/25 01:49:58;;;;;;;73.70;36.10;;;;;;;1.00;82.45;101782.10;84611;1330;23938;-83
2022/01/25 01:52:08;;;;;;;72.90;37.30;;;;;;;1.01;82.48;101781.27;84690;1320;23975;-83
2022/01/25 01:54:18;;;;;;;78.30;38.10;;;;;;;1.04;82.65;101779.10;84681;1328;25282;-76
2022/01/25 01:56:27;;;;;;;75.70;37.50;;;;;;;1.08;82.59;101776.08;84665;1329;23868;-76
2022/01/25 01:58:36;;;;;;;80.20;38.10;;;;;;;1.10;82.75;101774.25;84611;1330;24238;-76
2022/01/25 02:00:48;;;;;;;75.80;37.90;;;;;;;1.12;82.60;101770.50;84679;1328;24198;-76
2022/01/25 02:02:57;;;;;;;82.30;38.10;;;;;;;1.11;82.54;101769.63;84659;1330;22604;-76
2022/01/25 02:05:07;;;;;;;78.40;37.50;;;;;;;1.11;82.64;101769.63;84591;1315;22662;-76
2022/01/25 02:07:16;;;;;;;76.10;38.20;;;;;;;1.12;82.63;101771.20;84580;1330;22605;-76
2022/01/25 02:09:25;;;;;;;75.00;35.70;;;;;;;1.13;82.58;101769.66;84678;1332;22591;-76
2022/01/25 02:11:35;;;;;;;71.10;34.40;;;;;;;1.15;82.69;101771.97;84690;1330;22825;-76
2022/01/25 02:13:45;;;;;;;76.30;36.80;;;;;;;1.17;82.80;101769.42;84697;1330;22645;-76
2022/01/25 02:15:57;;;;;;;73.30;35.00;;;;;;;1.19;83.10;101765.55;84679;1329;22597;-76
2022/01/25 02:23:21;;;;;;;67.90;31.90;;;;;;;1.19;82.72;101765.69;84399;1335;22748;-76
2022/01/25 02:25:34;;;;;;;70.90;32.40;;;;;;;1.16;82.55;101765.80;84443;1337;22868;-77
2022/01/25 02:27:43;;;;;;;63.80;31.80;;;;;;;1.15;82.71;101757.88;84327;1331;22746;-76
2022/01/25 02:29:52;;;;;;;53.90;29.30;;;;;;;1.15;82.65;101752.20;84593;1331;23966;-84
2022/01/25 02:32:06;;;;;;;58.30;28.20;;;;;;;1.18;82.65;101745.89;84620;1329;24366;-83
2022/01/25 02:34:15;;;;;;;59.60;28.80;;;;;;;1.19;82.76;101743.35;84666;1329;23965;-77
2022/01/25 02:36:28;;;;;;;57.20;29.60;;;;;;;1.19;82.95;101730.64;84671;1331;22741;-76
2022/01/25 02:38:38;;;;;;;59.20;29.50;;;;;;;1.19;82.70;101728.41;84626;1330;25269;-77
2022/01/25 02:40:55;;;;;;;56.40;30.50;;;;;;;1.19;82.80;101727.03;84671;1329;24105;-76
2022/01/25 02:43:05;;;;;;;68.30;31.30;;;;;;;1.18;82.98;101735.60;84589;1333;23096;-76
2022/01/25 02:45:17;;;;;;;56.80;28.50;;;;;;;1.19;82.89;101738.19;84707;1329;22607;-82
2022/01/25 02:50:06;;;;;;;60.40;29.50;;;;;;;1.20;82.73;101739.94;84302;1335;22775;-76
2022/01/25 02:52:15;;;;;;;56.70;26.70;;;;;;;1.22;82.75;101738.59;84461;1331;26653;-84
2022/01/25 02:54:25;;;;;;;60.40;30.40;;;;;;;1.22;82.82;101735.67;84612;1330;22686;-75
2022/01/25 02:56:35;;;;;;;51.80;27.30;;;;;;;1.22;82.85;101738.09;84605;1333;22585;-82
2022/01/25 02:58:53;;;;;;;50.70;27.00;;;;;;;1.18;82.65;101740.40;84612;1330;22695;-76
2022/01/25 03:01:02;;;;;;;53.80;27.00;;;;;;;1.17;82.73;101735.55;84610;1327;22639;-83
2022/01/25 03:03:11;;;;;;;56.20;28.40;;;;;;;1.16;82.92;101729.36;84622;1330;22677;-76
2022/01/25 03:05:21;;;;;;;53.30;27.10;;;;;;;1.16;82.79;101723.51;84586;1330;22631;-76
2022/01/25 03:07:30;;;;;;;53.30;26.60;;;;;;;1.16;82.88;101723.00;84601;1330;22618;-76
2022/01/25 03:09:40;;;;;;;57.30;28.40;;;;;;;1.18;82.83;101723.23;84630;1333;22709;-83
2022/01/25 03:11:54;;;;;;;52.30;28.00;;;;;;;1.20;83.05;101722.74;84620;1327;22596;-76
2022/01/25 03:14:10;;;;;;;49.60;25.70;;;;;;;1.21;83.03;101716.40;84557;1334;22615;-76
2022/01/25 03:16:27;;;;;;;53.20;26.60;;;;;;;1.22;83.04;101713.50;84691;1331;24245;-76
2022/01/25 03:18:44;;;;;;;60.60;28.30;;;;;;;1.22;82.95;101710.08;84679;1324;22871;-82
2022/01/25 03:21:03;;;;;;;58.60;27.50;;;;;;;1.18;82.80;101701.73;84712;1330;22584;-77
2022/01/25 03:23:19;;;;;;;;;;;;;;;1.17;83.23;101697.06;84684;1328;22598;-76
2022/01/25 03:25:31;;;;;;;55.90;27.40;;;;;;;1.15;83.07;101701.48;84679;1329;22638;-83
2022/01/25 03:27:41;;;;;;;53.80;26.40;;;;;;;1.13;83.09;101702.14;84693;1331;25285;-83
2022/01/25 03:29:54;;;;;;;56.00;26.90;;;;;;;1.13;83.25;101698.19;84716;1332;23813;-76
2022/01/25 03:32:05;;;;;;;49.40;24.30;;;;;;;1.12;83.08;101688.36;84665;1330;22925;-75
2022/01/25 03:34:15;;;;;;;53.90;26.10;;;;;;;1.12;83.06;101682.86;84715;1330;22616;-83
2022/01/25 03:36:25;;;;;;;57.90;28.40;;;;;;;1.15;83.27;101684.65;84671;1328;25320;-83
2022/01/25 03:38:36;;;;;;;46.60;24.80;;;;;;;1.18;83.36;101687.45;84690;1328;23923;-82
2022/01/25 03:40:46;;;;;;;54.20;26.90;;;;;;;1.18;83.20;101679.56;84689;1330;22731;-84
2022/01/25 03:43:03;;;;;;;51.40;25.80;;;;;;;1.17;83.22;101683.14;84686;1330;23946;-83
2022/01/25 03:45:19;;;;;;;53.10;25.90;;;;;;;1.17;83.15;101682.98;84565;1327;22707;-77
2022/01/25 03:47:42;;;;;;;52.60;26.80;;;;;;;1.17;83.34;101689.33;84701;1329;22621;-77
2022/01/25 03:49:55;;;;;;;49.30;24.80;;;;;;;1.16;83.08;101685.36;84702;1330;22594;-83
2022/01/25 03:52:07;;;;;;;52.20;26.30;;;;;;;1.15;83.19;101685.34;83968;1328;1003073;-83
2022/01/25 03:54:17;;;;;;;49.50;25.30;;;;;;;1.17;83.17;101684.69;84713;1328;22621;-76
2022/01/25 03:56:27;;;;;;;51.40;24.90;;;;;;;1.16;83.41;101682.27;84662;1328;24267;-76
2022/01/25 03:58:37;;;;;;;51.00;25.00;;;;;;;1.19;83.37;101678.23;84688;1330;22613;-82
2022/01/25 04:00:46;;;;;;;47.70;23.80;;;;;;;1.20;83.19;101674.11;84790;1330;26703;-84
2022/01/25 04:03:00;;;;;;;;;;;;;;;1.21;83.31;101668.10;84801;1329;24270;-84
2022/01/25 04:05:19;;;;;;;53.00;23.30;;;;;;;1.21;83.33;101671.20;84908;1328;22767;-83
2022/01/25 04:07:42;;;;;;;50.30;24.80;;;;;;;1.22;83.30;101666.57;84739;1331;22590;-84
2022/01/25 04:09:55;;;;;;;59.30;26.70;;;;;;;1.20;83.04;101661.57;84753;1330;22703;-76
2022/01/25 04:12:05;;;;;;;48.50;23.50;;;;;;;1.20;83.14;101663.27;84702;1330;22665;-76
2022/01/25 04:14:15;;;;;;;51.10;25.90;;;;;;;1.20;83.04;101661.21;84712;1330;22636;-83
2022/01/25 04:16:31;;;;;;;44.80;22.90;;;;;;;1.21;83.20;101640.77;84664;1329;22771;-85
2022/01/25 04:19:01;;;;;;;50.40;22.30;;;;;;;1.25;83.33;101631.07;84605;1331;24038;-75
2022/01/25 04:21:24;;;;;;;51.30;23.60;;;;;;;1.31;83.62;101631.02;84677;1329;23185;-76
2022/01/25 04:26:01;;;;;;;53.70;24.00;;;;;;;1.33;83.38;101620.21;84592;1330;22725;-76
2022/01/25 04:28:10;;;;;;;47.10;24.70;;;;;;;1.34;83.58;101617.33;84600;1330;22618;-76
2022/01/25 04:30:20;;;;;;;51.10;26.90;;;;;;;1.32;83.25;101615.39;84670;1330;22885;-83
2022/01/25 04:32:40;;;;;;;51.60;23.70;;;;;;;1.28;83.25;101615.30;84674;1329;24377;-84
2022/01/25 04:35:08;;;;;;;47.50;21.70;;;;;;;1.26;83.24;101620.41;84677;1330;25344;-76
2022/01/25 04:49:42;;;;;;;46.40;22.30;;;;;;;1.35;83.66;101602.55;84652;1324;22658;-76
2022/01/25 04:52:01;;;;;;;43.80;22.00;;;;;;;1.34;83.45;101594.45;84683;1329;24324;-76
2022/01/25 04:54:17;;;;;;;44.70;21.70;;;;;;;1.31;83.30;101605.55;84634;1329;25492;-76
2022/01/25 04:56:33;;;;;;;42.00;21.90;;;;;;;1.30;83.41;101602.80;84660;1330;22741;-77
2022/01/25 04:58:49;;;;;;;46.00;20.90;;;;;;;1.31;83.67;101590.77;84701;1329;22690;-83
2022/01/25 05:00:58;;;;;;;41.60;20.80;;;;;;;1.33;83.69;101586.17;84579;1329;24356;-83
2022/01/25 05:03:11;;;;;;;47.90;22.00;;;;;;;1.35;83.77;101586.05;84588;1330;22931;-83
2022/01/25 05:05:26;;;;;;;40.60;20.50;;;;;;;1.38;83.55;101592.63;84722;1330;22608;-83
2022/01/25 05:07:45;;;;;;;40.80;21.00;;;;;;;1.37;83.57;101589.67;84657;1330;22614;-84
2022/01/25 05:09:56;;;;;;;40.00;21.40;;;;;;;1.33;83.44;101587.89;83970;1329;1003140;-77
2022/01/25 05:12:08;;;;;;;40.90;20.20;;;;;;;1.31;83.59;101583.05;84672;1330;23941;-77
2022/01/25 05:14:22;;;;;;;46.80;20.60;;;;;;;1.31;83.50;101579.95;84683;1330;22625;-83
2022/01/25 05:16:37;;;;;;;43.80;19.30;;;;;;;1.31;83.46;101578.40;84671;1330;25503;-83
2022/01/25 05:18:49;;;;;;;38.50;19.30;;;;;;;1.32;83.52;101582.36;84657;1328;22990;-83
2022/01/25 05:23:25;;;;;;;36.90;20.30;;;;;;;1.36;83.57;101582.97;84635;1332;24238;-76
2022/01/25 05:25:37;;;;;;;36.40;17.80;;;;;;;1.40;84.07;101582.53;84660;1329;25500;-75
2022/01/25 05:27:46;;;;;;;34.20;18.60;;;;;;;1.43;84.02;101581.05;84668;1329;22643;-76
2022/01/25 05:29:59;;;;;;;35.20;20.10;;;;;;;1.44;83.98;101583.83;84696;1329;24293;-83
2022/01/25 05:32:13;;;;;;;34.60;17.00;;;;;;;1.46;83.99;101582.98;84656;1325;23764;-83
2022/01/25 05:34:23;;;;;;;36.10;18.00;;;;;;;1.45;83.76;101574.89;84665;1330;22876;-75
2022/01/25 05:36:38;;;;;;;36.20;18.90;;;;;;;1.45;83.78;101572.14;84539;1324;22811;-75
2022/01/25 05:39:06;;;;;;;31.30;17.90;;;;;;;1.42;83.45;101575.19;84712;1329;22586;-84
2022/01/25 05:41:15;;;;;;;35.90;19.00;;;;;;;1.42;83.38;101572.57;84681;1329;25265;-84
2022/01/25 05:45:59;;;;;;;34.50;20.00;;;;;;;1.40;83.57;101574.95;84676;1328;22603;-82
2022/01/25 05:48:10;;;;;;;37.90;19.10;;;;;;;1.38;83.64;101573.90;84692;1330;22590;-84
2022/01/25 05:50:20;;;;;;;39.80;20.40;;;;;;;1.39;83.77;101578.56;84618;1329;22592;-76
2022/01/25 05:52:31;;;;;;;38.80;19.60;;;;;;;1.38;83.77;101580.77;84662;1328;27032;-76
2022/01/25 05:54:40;;;;;;;39.60;20.30;;;;;;;1.37;83.74;101575.25;84597;1325;22633;-83
2022/01/25 05:56:49;;;;;;;39.80;19.10;;;;;;;1.38;83.79;101571.32;84689;1329;25324;-80
2022/01/25 05:58:59;;;;;;;42.80;20.90;;;;;;;1.41;83.92;101567.41;84630;1324;23030;-81
2022/01/25 06:01:09;;;;;;;45.10;21.30;;;;;;;1.44;84.15;101574.36;84612;1329;22621;-82
2022/01/25 06:03:19;;;;;;;38.10;19.90;;;;;;;1.44;83.85;101577.09;84678;1324;22641;-82
2022/01/25 06:05:29;;;;;;;42.00;22.50;;;;;;;1.42;83.95;101579.81;84617;1330;23947;-83
2022/01/25 06:07:36;;;;;;;;;;;;;;;1.43;83.96;101578.96;84650;1331;22571;-81
2022/01/25 06:09:48;;;;;;;43.30;21.60;;;;;;;1.41;84.11;101572.40;84617;1329;25487;-73
2022/01/25 06:11:59;;;;;;;42.30;20.60;;;;;;;1.40;84.14;101572.05;84629;1329;22623;-74
2022/01/25 06:14:08;;;;;;;43.80;19.50;;;;;;;1.40;83.93;101569.81;84609;1330;22698;-74
2022/01/25 06:16:19;;;;;;;49.70;23.30;;;;;;;1.39;83.84;101573.23;84567;1330;24013;-74
2022/01/25 06:18:28;;;;;;;45.80;21.60;;;;;;;1.39;83.96;101567.73;84554;1332;22642;-75
2022/01/25 06:20:38;;;;;;;46.00;22.10;;;;;;;1.40;83.93;101563.63;84657;1328;22713;-73
2022/01/25 06:22:52;;;;;;;44.70;23.30;;;;;;;1.41;83.98;101569.14;84627;1330;22614;-83
2022/01/25 06:25:02;;;;;;;47.70;22.80;;;;;;;1.42;83.91;101570.02;84636;1328;25057;-74
2022/01/25 06:27:12;;;;;;;49.30;22.90;;;;;;;1.43;84.10;101570.73;84674;1330;22590;-81
2022/01/25 06:29:27;;;;;;;50.60;21.90;;;;;;;1.45;84.30;101568.01;84714;1329;22887;-81
2022/01/25 06:31:39;;;;;;;46.50;21.00;;;;;;;1.44;83.98;101562.15;84700;1330;25029;-74
2022/01/25 06:33:49;;;;;;;40.70;19.90;;;;;;;1.42;83.96;101556.61;84672;1329;22613;-82
2022/01/25 06:35:59;;;;;;;44.30;20.50;;;;;;;1.41;83.93;101553.15;84616;1329;23967;-82
2022/01/25 06:38:08;;;;;;;43.50;19.70;;;;;;;1.41;83.87;101551.25;84702;1329;24068;-82
2022/01/25 06:40:18;;;;;;;47.00;22.30;;;;;;;1.41;83.92;101548.50;84439;1332;386317;-75
2022/01/25 06:42:30;;;;;;;54.60;25.40;;;;;;;1.41;83.98;101547.98;84662;1331;24233;-73
2022/01/25 06:44:40;;;;;;;43.60;21.50;;;;;;;1.43;83.98;101544.77;84696;1328;25975;-84
2022/01/25 06:46:49;;;;;;;40.60;19.80;;;;;;;1.44;84.07;101541.35;84685;1330;23962;-87
2022/01/25 06:49:01;;;;;;;41.20;21.00;;;;;;;1.45;84.08;101541.70;84712;1330;25313;-74
2022/01/25 06:51:10;;;;;;;47.20;23.50;;;;;;;1.45;84.33;101536.73;84659;1325;22636;-74
2022/01/25 06:53:20;;;;;;;44.10;19.60;;;;;;;1.45;84.09;101532.59;84677;1331;22675;-74
2022/01/25 06:55:29;;;;;;;45.30;21.10;;;;;;;1.46;84.08;101535.52;84675;1325;22604;-81
2022/01/25 06:57:42;;;;;;;43.30;20.20;;;;;;;1.46;84.11;101536.73;84657;1329;24181;-83
2022/01/25 06:59:53;;;;;;;44.30;21.60;;;;;;;1.47;83.99;101535.38;84663;1324;22629;-73
2022/01/25 07:02:02;;;;;;;41.30;20.80;;;;;;;1.50;84.31;101538.19;84601;1333;23124;-73
2022/01/25 07:04:12;;;;;;;39.10;21.30;;;;;;;1.50;84.19;101537.33;84612;1330;23839;-84
2022/01/25 07:06:24;;;;;;;39.60;21.10;;;;;;;1.54;84.36;101540.83;84660;1329;24216;-84
2022/01/25 07:08:33;;;;;;;44.20;22.00;;;;;;;1.54;84.14;101535.33;84564;1330;22781;-83
2022/01/25 07:10:46;;;;;;;43.20;22.90;;;;;;;1.54;84.17;101538.43;84675;1330;23957;-83
2022/01/25 07:12:56;;;;;;;43.90;22.30;;;;;;;1.56;84.32;101542.06;84603;1330;23947;-83
2022/01/25 07:15:09;;;;;;;43.60;22.50;;;;;;;1.57;84.38;101539.66;84724;1330;23854;-83
2022/01/25 07:17:19;;;;;;;36.50;19.70;;;;;;;1.57;84.20;101536.05;84636;1330;22619;-83
2022/01/25 07:19:29;;;;;;;40.00;19.30;;;;;;;1.58;84.18;101535.03;84725;1328;24217;-80
2022/01/25 07:21:38;;;;;;;37.50;20.10;;;;;;;1.61;84.45;101538.02;84693;1328;24088;-84
2022/01/25 07:23:50;;;;;;;97.30;46.30;;;;;;;1.66;84.48;101536.55;84733;1329;22638;-83
2022/01/25 07:26:00;;;;;;;85.60;42.90;;;;;;;1.68;84.37;101541.43;84673;1329;22877;-84
2022/01/25 07:28:09;;;;;;;39.00;19.80;;;;;;;1.71;84.38;101546.28;84689;1329;22696;-83
2022/01/25 07:30:18;;;;;;;38.60;19.90;;;;;;;1.70;84.26;101543.17;84683;1328;22727;-85
2022/01/25 07:32:34;;;;;;;35.10;19.80;;;;;;;1.69;84.27;101542.64;84699;1330;22618;-85
2022/01/25 07:34:43;;;;;;;39.40;19.10;;;;;;;1.67;84.36;101537.60;84650;1330;22622;-86
2022/01/25 07:36:54;;;;;;;40.90;20.00;;;;;;;1.69;84.33;101530.08;84538;1329;22618;-85
2022/01/25 07:39:04;;;;;;;39.30;18.90;;;;;;;1.70;84.43;101527.87;84696;1329;25288;-73
2022/01/25 07:41:37;;;;;;;34.80;19.50;;;;;;;1.72;84.32;101534.44;84686;1325;22604;-83
2022/01/25 07:43:47;;;;;;;36.00;18.60;;;;;;;1.76;84.64;101536.39;84624;1329;25146;-74
2022/01/25 07:45:58;;;;;;;35.90;18.90;;;;;;;1.80;84.36;101529.92;84528;1330;23926;-84
2022/01/25 07:48:09;;;;;;;34.40;20.10;;;;;;;1.87;84.52;101524.16;84611;1329;22592;-83
2022/01/25 07:50:23;;;;;;;32.90;20.00;;;;;;;1.90;84.52;101524.58;84638;1326;23968;-84
2022/01/25 07:52:37;;;;;;;35.00;18.50;;;;;;;1.92;84.42;101523.91;84601;1329;22604;-84
2022/01/25 07:54:49;;;;;;;39.40;20.10;;;;;;;1.91;84.19;101519.25;84620;1330;23984;-83
2022/01/25 07:56:58;;;;;;;32.10;18.50;;;;;;;1.89;84.19;101517.33;84542;1323;22599;-81
2022/01/25 07:59:08;;;;;;;39.80;19.40;;;;;;;1.87;84.30;101516.95;84724;1329;22725;-82
2022/01/25 08:01:21;;;;;;;35.20;19.40;;;;;;;1.87;84.33;101513.50;84674;1329;22653;-84
2022/01/25 08:03:30;;;;;;;36.60;19.40;;;;;;;1.90;84.40;101516.31;84732;1328;23897;-75
2022/01/25 08:05:48;;;;;;;32.70;17.80;;;;;;;1.93;84.54;101516.38;85297;1313;22493;-73
2022/01/25 08:08:00;;;;;;;27.60;16.50;;;;;;;1.97;84.50;101511.77;86037;1331;22910;-73
2022/01/25 08:10:22;;;;;;;29.60;16.00;;;;;;;2.00;84.54;101512.85;86085;1329;22211;-72
2022/01/25 08:12:33;;;;;;;27.40;16.20;;;;;;;2.05;84.54;101512.42;86153;1328;22387;-73
2022/01/25 08:14:44;;;;;;;30.00;17.50;;;;;;;2.05;84.27;101516.38;86151;1327;23011;-72
2022/01/25 08:16:54;;;;;;;29.40;18.20;;;;;;;2.05;84.05;101512.42;86159;1328;22646;-82
2022/01/25 08:19:03;;;;;;;30.60;16.40;;;;;;;2.03;84.03;101512.73;86152;1326;22904;-81
2022/01/25 08:21:16;;;;;;;26.00;15.30;;;;;;;2.03;84.14;101510.84;86168;1326;22356;-73
2022/01/25 08:23:28;;;;;;;28.10;14.90;;;;;;;2.03;83.99;101506.55;86119;1327;22379;-73
2022/01/25 08:25:38;;;;;;;26.10;16.20;;;;;;;2.05;84.07;101501.23;86166;1327;22187;-73
2022/01/25 08:27:47;;;;;;;26.70;16.40;;;;;;;2.10;84.20;101496.82;86129;1327;22174;-72
2022/01/25 08:29:56;;;;;;;27.70;16.30;;;;;;;2.13;84.14;101495.67;86153;1326;22902;-83
2022/01/25 08:32:07;;;;;;;27.70;15.50;;;;;;;2.13;83.90;101491.55;86165;1331;22431;-83
2022/01/25 08:34:19;;;;;;;29.40;15.20;;;;;;;2.15;83.97;101492.59;86175;1327;22947;-82
2022/01/25 08:36:28;;;;;;;27.60;15.70;;;;;;;2.21;84.31;101492.01;86153;1327;23084;-86
2022/01/25 08:38:37;;;;;;;26.40;15.30;;;;;;;2.28;84.34;101489.69;86158;1324;22216;-85
2022/01/25 08:40:56;;;;;;;26.70;15.40;;;;;;;2.32;84.07;101482.50;86092;1331;22382;-71
2022/01/25 08:43:14;;;;;;;21.00;13.50;;;;;;;2.33;83.99;101488.38;86153;1330;22390;-71
2022/01/25 08:45:26;;;;;;;22.20;14.30;;;;;;;2.37;83.85;101486.72;86121;1331;22514;-72
2022/01/25 08:47:36;;;;;;;20.60;13.70;;;;;;;2.44;84.05;101491.45;86153;1326;22972;-72
2022/01/25 08:49:45;;;;;;;18.60;13.50;;;;;;;2.51;83.94;101480.88;86065;1332;22870;-79
2022/01/25 08:51:54;;;;;;;19.00;13.20;;;;;;;2.54;83.78;101475.04;86158;1327;23224;-80
2022/01/25 08:54:07;;;;;;;23.60;15.20;;;;;;;2.57;83.68;101475.61;86155;1326;22532;-80
2022/01/25 08:56:20;;;;;;;22.80;14.50;;;;;;;2.59;83.63;101471.49;86156;1329;22687;-74
2022/01/25 08:58:31;;;;;;;20.80;14.00;;;;;;;2.60;83.58;101468.73;86155;1328;22358;-73
2022/01/25 09:00:45;;;;;;;;;;;;;;;2.59;83.38;101468.73;86075;1329;22433;-73
2022/01/25 09:03:27;;;;;;;24.00;12.60;;;;;;;2.53;83.20;101465.55;86136;1327;22723;-72
2022/01/25 09:05:39;;;;;;;21.60;12.40;;;;;;;2.52;83.22;101472.27;86156;1327;23085;-73
2022/01/25 09:07:52;;;;;;;19.40;12.20;;;;;;;2.54;83.48;101469.88;86156;1326;22993;-73
2022/01/25 09:10:08;;;;;;;21.00;12.50;;;;;;;2.59;83.44;101460.64;86155;1326;22980;-73
2022/01/25 09:12:17;;;;;;;17.30;12.30;;;;;;;2.61;83.21;101457.56;85446;1328;1002881;-71
2022/01/25 09:14:29;;;;;;;19.80;12.90;;;;;;;2.58;83.07;101451.84;86157;1328;22672;-73
2022/01/25 09:16:39;;;;;;;17.10;12.70;;;;;;;2.61;83.46;101447.39;86156;1328;23083;-70
2022/01/25 09:18:51;;;;;;;20.10;13.40;;;;;;;2.66;83.57;101448.84;86154;1331;22396;-74
2022/01/25 09:21:01;;;;;;;17.10;11.60;;;;;;;2.71;83.67;101446.14;86135;1326;23073;-81
2022/01/25 09:23:15;;;;;;;18.80;12.20;;;;;;;2.72;83.45;101448.22;86166;1327;22282;-80
2022/01/25 09:25:25;;;;;;;18.40;11.60;;;;;;;2.71;83.30;101446.13;86181;1326;22328;-75
2022/01/25 09:27:36;;;;;;;16.40;11.20;;;;;;;2.70;83.05;101453.69;86152;1328;22791;-74
2022/01/25 09:29:47;;;;;;;17.40;11.30;;;;;;;2.68;83.06;101449.54;86154;1331;22427;-79
2022/01/25 09:31:59;;;;;;;15.70;11.90;;;;;;;2.69;83.43;101457.31;86150;1327;22478;-74
2022/01/25 09:34:08;;;;;;;18.20;12.40;;;;;;;2.70;83.39;101456.11;86146;1328;22203;-74
2022/01/25 09:36:18;;;;;;;18.60;13.60;;;;;;;2.72;83.40;101460.64;86129;1330;22882;-74
2022/01/25 09:38:36;;;;;;;18.60;12.90;;;;;;;2.76;83.48;101458.77;86161;1327;22869;-73
2022/01/25 09:40:47;;;;;;;20.10;13.40;;;;;;;2.70;83.24;101455.95;86165;1331;22194;-80
2022/01/25 09:42:57;;;;;;;21.10;13.80;;;;;;;2.68;83.28;101454.71;86150;1330;22749;-80
2022/01/25 09:45:09;;;;;;;16.80;12.30;;;;;;;2.67;83.42;101457.28;86162;1330;22356;-73
2022/01/25 09:47:22;;;;;;;20.50;12.20;;;;;;;2.68;83.45;101462.30;86134;1327;22368;-73
2022/01/25 09:49:31;;;;;;;18.90;11.80;;;;;;;2.70;83.45;101465.41;86158;1328;22902;-73
2022/01/25 09:51:46;;;;;;;13.80;11.10;;;;;;;2.69;83.30;101463.68;86166;1330;22403;-73
2022/01/25 09:54:00;;;;;;;17.50;11.80;;;;;;;2.73;83.64;101461.84;86161;1330;22373;-80
2022/01/25 09:56:10;;;;;;;16.60;11.90;;;;;;;2.75;83.50;101456.85;86137;1331;22519;-80
2022/01/25 09:58:21;;;;;;;;;;;;;;;2.76;83.47;101451.36;86176;1331;22476;-81
2022/01/25 10:00:32;;;;;;;18.10;12.80;;;;;;;2.73;83.84;101449.95;86157;1327;23152;-72
2022/01/25 10:02:48;;;;;;;16.10;11.70;;;;;;;2.75;83.74;101445.65;86128;1330;22445;-80
2022/01/25 10:04:57;;;;;;;19.00;12.70;;;;;;;2.76;83.64;101445.68;86148;1330;22578;-80
2022/01/25 10:07:09;;;;;;;16.50;10.90;;;;;;;2.78;83.56;101447.08;86160;1328;22330;-81
2022/01/25 10:09:22;;;;;;;23.60;13.50;;;;;;;2.82;83.56;101444.37;86159;1326;22350;-80
2022/01/25 10:11:35;;;;;;;17.20;12.00;;;;;;;2.87;83.69;101440.46;86158;1326;23111;-80
2022/01/25 10:13:45;;;;;;;16.10;12.20;;;;;;;2.90;83.79;101442.38;86132;1331;23180;-72
2022/01/25 10:15:59;;;;;;;12.40;10.60;;;;;;;2.93;83.80;101442.77;86155;1327;22339;-80
2022/01/25 10:18:11;;;;;;;12.60;10.50;;;;;;;2.95;83.63;101443.97;86145;1331;22356;-82
2022/01/25 10:20:32;;;;;;;18.30;11.30;;;;;;;2.95;83.75;101447.09;86156;1329;22374;-79
2022/01/25 10:22:50;;;;;;;18.20;12.50;;;;;;;2.96;83.64;101443.30;86162;1328;23026;-78
2022/01/25 10:25:03;;;;;;;15.40;11.40;;;;;;;2.98;83.61;101445.05;86152;1326;23059;-79
2022/01/25 10:27:13;;;;;;;13.70;11.30;;;;;;;3.00;83.49;101443.34;86112;1331;23001;-81
2022/01/25 10:29:25;;;;;;;12.80;10.20;;;;;;;3.01;83.37;101441.13;86153;1328;22876;-80
2022/01/25 10:31:49;;;;;;;15.90;11.40;;;;;;;3.04;83.55;101438.73;86119;1331;22340;-74
2022/01/25 10:33:59;;;;;;;13.10;10.60;;;;;;;3.09;83.77;101434.98;86134;1327;22417;-74
2022/01/25 10:36:17;;;;;;;17.30;11.70;;;;;;;3.10;83.47;101431.90;86128;1327;22215;-80
2022/01/25 10:38:29;;;;;;;15.20;11.70;;;;;;;3.07;83.45;101435.32;86166;1325;22417;-80
2022/01/25 10:40:44;;;;;;;15.20;11.70;;;;;;;3.05;83.41;101438.06;86159;1331;22361;-83
2022/01/25 10:42:58;;;;;;;17.90;12.80;;;;;;;3.05;83.49;101436.52;86159;1327;22367;-80
2022/01/25 10:45:23;;;;;;;18.40;12.70;;;;;;;3.06;83.29;101435.31;86077;1330;22216;-71
2022/01/25 10:47:49;;;;;;;16.20;12.00;;;;;;;3.10;83.45;101426.02;86107;1330;22885;-71
2022/01/25 10:50:14;;;;;;;17.70;10.30;;;;;;;3.13;83.57;101420.02;86149;1331;23055;-79
2022/01/25 10:52:37;;;;;;;15.20;11.00;;;;;;;3.18;83.41;101423.87;86133;1326;22897;-80
2022/01/25 10:54:56;;;;;;;20.20;13.00;;;;;;;3.19;83.39;101431.10;86141;1330;22450;-72
2022/01/25 10:57:19;;;;;;;14.20;11.10;;;;;;;3.21;83.53;101426.14;86154;1325;22223;-72
2022/01/25 10:59:38;;;;;;;23.40;14.10;;;;;;;3.21;83.54;101425.80;86147;1326;23002;-81
2022/01/25 11:02:00;;;;;;;13.40;10.40;;;;;;;3.23;83.67;101423.73;86150;1330;22536;-72
2022/01/25 11:04:15;;;;;;;16.60;10.50;;;;;;;3.26;83.67;101425.48;86154;1326;22358;-73
2022/01/25 11:06:27;;;;;;;18.80;10.40;;;;;;;3.27;83.46;101422.40;86144;1326;22497;-73
2022/01/25 11:08:41;;;;;;;21.30;12.80;;;;;;;3.32;83.41;101420.71;86131;1331;22368;-72
2022/01/25 11:10:57;;;;;;;11.10;9.00;;;;;;;3.35;83.50;101417.98;86160;1327;22994;-77
2022/01/25 11:13:22;;;;;;;9.90;8.20;;;;;;;3.39;83.31;101412.83;86116;1327;23086;-78
2022/01/25 11:15:35;;;;;;;11.40;9.10;;;;;;;3.44;83.53;101412.53;86150;1326;22314;-78
2022/01/25 11:17:45;;;;;;;13.30;9.20;;;;;;;3.46;83.19;101409.62;86166;1330;23045;-79
2022/01/25 11:19:59;;;;;;;10.30;9.20;;;;;;;3.51;83.61;101409.66;86172;1327;22284;-79
2022/01/25 11:22:11;;;;;;;13.10;9.80;;;;;;;3.55;83.25;101410.90;86162;1326;23098;-79
2022/01/25 11:24:24;;;;;;;12.80;10.30;;;;;;;3.54;83.15;101411.40;86147;1326;22442;-80
2022/01/25 11:26:37;;;;;;;14.20;9.90;;;;;;;3.57;83.23;101411.77;86057;1331;22486;-79